Time;durP1;ratioP1;P1;durP2;ratioP2;P2;SDS_P1;SDS_P2;PMS_P1;PMS_P2;Temp;Humidity;BMP_temperature;BMP_pressure;BME280_temperature;BME280_humidity;BME280_pressure;Samples;Min_cycle;Max_cycle;Signal;HPM_P1;HPM_P2
2023/07/16 00:00:18;;;;;;;6.25;1.80;;;18.10;62.60;;;;;;5029541;28;20049;-83
2023/07/16 00:02:49;;;;;;;5.90;1.93;;;18.10;63.60;;;;;;5013109;28;20046;-82
2023/07/16 00:05:16;;;;;;;5.50;1.70;;;18.10;64.40;;;;;;5029263;28;20141;-82
2023/07/16 00:07:44;;;;;;;5.95;1.98;;;18.10;65.10;;;;;;5029826;28;20167;-83
2023/07/16 00:10:11;;;;;;;7.72;2.15;;;18.10;66.00;;;;;;5029125;28;20054;-82
2023/07/16 00:12:39;;;;;;;6.15;2.00;;;18.10;67.60;;;;;;5029985;28;20495;-82
2023/07/16 00:15:07;;;;;;;8.00;2.30;;;18.10;68.00;;;;;;5029577;28;20042;-82
2023/07/16 00:17:36;;;;;;;6.13;2.30;;;18.10;68.90;;;;;;5016235;28;20053;-83
2023/07/16 00:20:04;;;;;;;7.28;1.80;;;18.10;69.30;;;;;;5028884;28;20160;-82
2023/07/16 00:22:31;;;;;;;4.47;1.85;;;18.10;69.60;;;;;;5029902;28;20053;-82
2023/07/16 00:24:58;;;;;;;8.60;2.38;;;18.00;69.90;;;;;;5012979;28;20056;-82
2023/07/16 00:27:25;;;;;;;7.43;2.07;;;18.10;70.50;;;;;;5029696;28;20184;-82
2023/07/16 00:29:53;;;;;;;7.63;2.13;;;18.10;70.20;;;;;;5012856;28;20061;-82
2023/07/16 00:32:20;;;;;;;7.28;2.20;;;18.00;69.70;;;;;;5012842;28;20054;-83
2023/07/16 00:34:49;;;;;;;8.15;2.30;;;18.00;69.30;;;;;;5028096;28;20058;-82
2023/07/16 00:37:16;;;;;;;8.15;2.10;;;18.00;68.90;;;;;;5012769;28;20077;-82
2023/07/16 00:39:43;;;;;;;8.20;1.93;;;18.00;68.50;;;;;;5012798;28;20052;-82
2023/07/16 00:42:10;;;;;;;8.43;1.60;;;17.90;68.10;;;;;;5009615;28;20081;-83
2023/07/16 00:44:37;;;;;;;6.53;1.77;;;17.80;67.90;;;;;;5002300;28;20050;-82
2023/07/16 00:47:04;;;;;;;9.13;1.92;;;17.80;67.70;;;;;;5012645;28;20473;-82
2023/07/16 00:49:32;;;;;;;7.68;2.00;;;17.80;67.60;;;;;;5012907;28;20054;-82
2023/07/16 00:52:01;;;;;;;8.50;1.80;;;17.80;67.40;;;;;;5011426;28;20988;-82
2023/07/16 00:54:31;;;;;;;7.03;1.90;;;17.80;67.10;;;;;;5029092;28;20054;-82
2023/07/16 00:56:58;;;;;;;8.23;1.90;;;17.70;67.10;;;;;;5029027;28;20554;-82
2023/07/16 00:59:25;;;;;;;7.55;1.83;;;17.60;67.00;;;;;;5029429;28;20046;-83
2023/07/16 01:01:52;;;;;;;7.15;2.28;;;17.60;67.00;;;;;;5011935;28;20050;-82
2023/07/16 01:04:19;;;;;;;5.60;1.70;;;17.60;67.00;;;;;;5008638;28;20594;-82
2023/07/16 01:06:52;;;;;;;6.57;2.00;;;17.60;67.20;;;;;;4992890;28;20990;-83
2023/07/16 01:09:22;;;;;;;6.90;1.92;;;17.50;67.40;;;;;;5011399;28;20072;-83
2023/07/16 01:11:50;;;;;;;8.48;2.05;;;17.50;67.60;;;;;;5012061;28;20108;-83
2023/07/16 01:14:18;;;;;;;8.68;2.17;;;17.50;67.90;;;;;;5028329;28;20057;-82
2023/07/16 01:16:46;;;;;;;7.23;2.00;;;17.50;68.10;;;;;;5011883;28;20085;-82
2023/07/16 01:19:13;;;;;;;7.18;2.13;;;17.50;68.50;;;;;;5011881;28;20052;-82
2023/07/16 01:21:48;;;;;;;6.43;2.00;;;17.40;68.70;;;;;;4991741;28;20042;-82
2023/07/16 01:24:54;;;;;;;8.88;1.73;;;17.50;69.20;;;;;;5005793;28;20046;-83
2023/07/16 01:27:37;;;;;;;7.07;2.15;;;17.40;69.40;;;;;;5007332;28;20152;-82
2023/07/16 01:30:09;;;;;;;5.80;1.73;;;17.40;69.80;;;;;;4999770;28;20165;-82
2023/07/16 01:32:38;;;;;;;8.13;2.00;;;17.50;70.40;;;;;;5028461;28;20060;-82
2023/07/16 01:35:06;;;;;;;7.65;2.10;;;17.50;70.70;;;;;;5011741;28;20046;-82
2023/07/16 01:37:33;;;;;;;7.28;2.10;;;17.50;70.90;;;;;;5028471;28;20117;-83
2023/07/16 01:40:01;;;;;;;7.40;2.25;;;17.50;70.70;;;;;;5027959;28;20104;-82
2023/07/16 01:42:29;;;;;;;9.40;2.23;;;17.50;70.70;;;;;;5011870;28;20152;-82
2023/07/16 01:44:56;;;;;;;7.63;2.13;;;17.50;70.50;;;;;;5010673;28;20062;-82
2023/07/16 01:47:34;;;;;;;8.68;2.22;;;17.50;70.40;;;;;;4991363;28;20058;-82
2023/07/16 01:50:01;;;;;;;5.70;2.17;;;17.50;70.60;;;;;;5008444;28;20808;-82
2023/07/16 01:52:28;;;;;;;8.52;2.15;;;17.50;70.50;;;;;;5007634;28;20050;-82
2023/07/16 01:54:57;;;;;;;6.57;2.17;;;17.50;70.40;;;;;;5025142;28;20136;-82
2023/07/16 01:57:24;;;;;;;10.15;2.72;;;17.50;70.20;;;;;;5010781;28;20054;-82
2023/07/16 01:59:51;;;;;;;8.20;2.30;;;17.50;70.10;;;;;;5011821;28;20703;-82
2023/07/16 02:02:18;;;;;;;7.40;2.70;;;17.50;69.70;;;;;;5011479;28;20570;-82
2023/07/16 02:04:47;;;;;;;8.88;2.90;;;17.50;69.40;;;;;;5027234;28;20578;-82
2023/07/16 02:07:14;;;;;;;8.10;2.50;;;17.50;68.60;;;;;;5011551;28;21072;-82
2023/07/16 02:09:41;;;;;;;8.95;2.40;;;17.50;68.30;;;;;;5011835;28;20501;-82
2023/07/16 02:12:08;;;;;;;9.60;2.80;;;17.50;67.80;;;;;;5016869;28;20239;-82
2023/07/16 02:14:35;;;;;;;8.77;2.60;;;17.50;66.70;;;;;;4991690;28;20133;-82
2023/07/16 02:17:03;;;;;;;7.82;2.63;;;17.50;66.50;;;;;;5008769;28;20504;-82
2023/07/16 02:19:30;;;;;;;9.50;2.77;;;17.50;65.90;;;;;;5011606;28;20049;-82
2023/07/16 02:21:58;;;;;;;8.30;2.80;;;17.50;65.40;;;;;;5026788;28;20486;-82
2023/07/16 02:24:25;;;;;;;9.32;3.03;;;17.50;64.80;;;;;;5009669;28;20130;-83
2023/07/16 02:26:52;;;;;;;9.65;2.58;;;17.50;64.70;;;;;;5021967;28;20539;-82
2023/07/16 02:29:20;;;;;;;9.30;2.67;;;17.50;64.70;;;;;;5011690;28;20054;-82
2023/07/16 02:31:48;;;;;;;9.40;2.83;;;17.50;64.70;;;;;;5024130;28;20850;-82
2023/07/16 02:34:15;;;;;;;7.70;2.55;;;17.50;64.50;;;;;;5008099;28;20054;-82
2023/07/16 02:36:41;;;;;;;7.43;2.47;;;17.50;64.60;;;;;;5019889;28;20593;-82
2023/07/16 02:39:10;;;;;;;10.90;3.05;;;17.50;64.60;;;;;;5007008;28;20054;-83
2023/07/16 02:41:37;;;;;;;7.63;2.30;;;17.50;64.70;;;;;;4998990;28;20137;-82
2023/07/16 02:44:06;;;;;;;12.93;2.70;;;17.50;64.50;;;;;;5007901;28;20046;-83
2023/07/16 02:46:35;;;;;;;9.77;2.70;;;17.50;64.60;;;;;;5001590;28;20060;-82
2023/07/16 02:49:03;;;;;;;10.23;2.70;;;17.50;64.70;;;;;;5011048;28;20128;-82
2023/07/16 02:51:31;;;;;;;7.10;2.33;;;17.50;64.80;;;;;;5010629;28;20053;-82
2023/07/16 02:53:58;;;;;;;8.52;2.63;;;17.50;64.70;;;;;;5020842;28;20038;-82
2023/07/16 02:56:26;;;;;;;9.10;2.87;;;17.40;64.80;;;;;;5026611;28;20429;-83
2023/07/16 02:58:53;;;;;;;7.70;2.80;;;17.50;64.60;;;;;;5010478;28;20050;-82
2023/07/16 03:01:20;;;;;;;9.90;2.72;;;17.50;64.70;;;;;;5009986;28;20057;-82
2023/07/16 03:03:48;;;;;;;9.00;2.70;;;17.50;64.70;;;;;;5010579;28;20077;-82
2023/07/16 03:06:15;;;;;;;12.07;3.38;;;17.40;64.80;;;;;;5008672;28;20050;-81
2023/07/16 03:08:42;;;;;;;8.07;2.70;;;17.40;65.00;;;;;;5010656;28;20046;-82
2023/07/16 03:11:09;;;;;;;10.80;2.83;;;17.40;65.00;;;;;;5009983;28;20053;-81
2023/07/16 03:13:39;;;;;;;8.40;2.90;;;17.40;65.20;;;;;;5010343;28;20046;-81
2023/07/16 03:16:07;;;;;;;8.90;2.95;;;17.40;65.30;;;;;;5007709;28;20058;-81
2023/07/16 03:18:34;;;;;;;12.23;2.65;;;17.40;65.40;;;;;;5007324;28;20129;-81
2023/07/16 03:21:02;;;;;;;10.13;2.80;;;17.30;65.40;;;;;;5007207;28;21015;-81
2023/07/16 03:23:29;;;;;;;7.97;2.90;;;17.20;65.60;;;;;;5025842;28;20061;-81
2023/07/16 03:25:55;;;;;;;8.57;3.25;;;17.20;65.60;;;;;;5010483;28;20523;-81
2023/07/16 03:28:23;;;;;;;8.52;3.20;;;17.20;65.60;;;;;;5010335;28;20185;-81
2023/07/16 03:30:51;;;;;;;10.05;2.90;;;17.20;65.50;;;;;;5010413;28;20064;-80
2023/07/16 03:33:20;;;;;;;9.53;3.00;;;17.20;65.60;;;;;;4994906;28;20981;-81
2023/07/16 03:35:48;;;;;;;9.02;3.10;;;17.20;65.70;;;;;;4990529;28;20082;-81
2023/07/16 03:38:16;;;;;;;10.07;3.20;;;17.20;65.60;;;;;;5016554;28;20052;-81
2023/07/16 03:40:47;;;;;;;9.50;2.88;;;17.20;65.70;;;;;;5019096;28;20050;-80
2023/07/16 03:43:14;;;;;;;10.77;3.25;;;17.20;65.90;;;;;;5003630;28;20058;-81
2023/07/16 03:45:41;;;;;;;9.40;2.90;;;17.20;65.90;;;;;;5010653;28;20050;-81
2023/07/16 03:48:09;;;;;;;11.43;3.10;;;17.20;65.90;;;;;;5006692;28;20065;-81
2023/07/16 03:50:37;;;;;;;11.30;3.05;;;17.20;65.90;;;;;;5009089;28;21020;-81
2023/07/16 03:53:05;;;;;;;7.38;2.92;;;17.20;66.10;;;;;;5026287;28;20100;-81
2023/07/16 03:55:32;;;;;;;7.85;2.80;;;17.10;66.20;;;;;;5009969;28;20129;-82
2023/07/16 03:57:59;;;;;;;10.10;3.00;;;17.10;66.20;;;;;;5023287;28;20050;-82
2023/07/16 04:00:27;;;;;;;9.05;3.22;;;17.10;66.20;;;;;;5002841;28;20053;-81
2023/07/16 04:02:54;;;;;;;10.70;3.83;;;17.10;66.40;;;;;;5009588;28;20054;-81
2023/07/16 04:05:23;;;;;;;9.50;3.00;;;17.20;66.40;;;;;;5010106;28;20566;-81
2023/07/16 04:07:51;;;;;;;10.23;3.33;;;17.10;66.60;;;;;;5009133;28;20050;-81
2023/07/16 04:10:18;;;;;;;11.93;3.03;;;17.10;66.70;;;;;;5026488;28;20053;-81
2023/07/16 04:12:45;;;;;;;10.95;3.70;;;17.00;67.00;;;;;;5029529;28;20129;-81
2023/07/16 04:15:12;;;;;;;10.18;3.40;;;17.00;67.10;;;;;;5026322;28;20061;-82
2023/07/16 04:17:39;;;;;;;11.95;3.45;;;17.10;67.10;;;;;;5014356;28;20129;-81
2023/07/16 04:20:08;;;;;;;11.55;3.75;;;17.00;67.20;;;;;;5018976;28;20046;-82
2023/07/16 04:22:36;;;;;;;10.33;3.30;;;17.00;67.50;;;;;;5035571;28;20054;-80
2023/07/16 04:25:04;;;;;;;9.73;3.70;;;17.00;67.60;;;;;;5049683;28;20140;-82
2023/07/16 04:27:31;;;;;;;11.90;3.22;;;17.00;67.70;;;;;;5030638;28;20054;-82
2023/07/16 04:29:58;;;;;;;8.32;3.30;;;17.00;67.80;;;;;;5030339;28;20046;-81
2023/07/16 04:32:25;;;;;;;8.57;3.05;;;17.00;67.90;;;;;;5009361;28;20606;-82
2023/07/16 04:34:52;;;;;;;10.23;3.53;;;17.00;68.10;;;;;;5008425;28;20054;-81
2023/07/16 04:37:19;;;;;;;9.15;3.10;;;17.00;68.30;;;;;;5025757;28;20060;-81
2023/07/16 04:39:48;;;;;;;12.95;3.40;;;17.00;68.50;;;;;;5027932;28;20648;-82
2023/07/16 04:42:16;;;;;;;9.00;2.92;;;17.00;69.20;;;;;;5040924;28;20512;-82
2023/07/16 04:44:43;;;;;;;8.02;2.60;;;17.00;69.30;;;;;;5033681;28;20056;-82
2023/07/16 04:47:10;;;;;;;8.27;2.87;;;17.00;69.20;;;;;;5027714;28;20049;-82
2023/07/16 04:49:37;;;;;;;11.65;3.03;;;17.00;69.20;;;;;;5028323;28;20531;-82
2023/07/16 04:52:05;;;;;;;10.35;3.30;;;17.00;69.40;;;;;;5028488;28;20133;-82
2023/07/16 04:54:36;;;;;;;9.43;3.38;;;17.00;69.20;;;;;;5031591;28;20167;-82
2023/07/16 04:57:07;;;;;;;9.13;2.50;;;17.00;69.20;;;;;;5028528;28;21147;-82
2023/07/16 04:59:34;;;;;;;9.90;2.83;;;17.00;69.00;;;;;;5012003;28;20152;-84
2023/07/16 05:02:03;;;;;;;7.47;2.80;;;17.00;69.10;;;;;;5020668;28;20047;-85
2023/07/16 05:04:30;;;;;;;8.18;2.42;;;17.00;69.20;;;;;;5012316;28;20046;-82
2023/07/16 05:06:57;;;;;;;9.77;3.00;;;17.00;69.20;;;;;;5027020;28;20077;-83
2023/07/16 05:09:24;;;;;;;11.00;2.90;;;17.10;69.10;;;;;;5028506;28;20061;-83
2023/07/16 05:11:51;;;;;;;10.07;3.00;;;17.20;69.20;;;;;;5015008;28;20078;-81
2023/07/16 05:14:20;;;;;;;9.57;3.25;;;17.20;69.10;;;;;;5029019;28;20145;-82
2023/07/16 05:16:47;;;;;;;9.77;2.72;;;17.20;69.40;;;;;;5040102;28;20669;-82
2023/07/16 05:19:14;;;;;;;7.80;2.60;;;17.20;69.30;;;;;;5045073;28;20136;-83
2023/07/16 05:21:41;;;;;;;9.82;2.92;;;17.20;69.30;;;;;;5028090;28;20050;-84
2023/07/16 05:24:08;;;;;;;7.83;2.40;;;17.20;69.30;;;;;;5029169;28;20054;-82
2023/07/16 05:26:35;;;;;;;9.02;2.63;;;17.20;69.20;;;;;;5028454;28;20504;-83
2023/07/16 05:29:02;;;;;;;9.25;2.80;;;17.30;69.20;;;;;;5036481;28;20105;-83
2023/07/16 05:31:31;;;;;;;11.77;3.20;;;17.30;69.20;;;;;;5022785;28;20204;-83
2023/07/16 05:33:58;;;;;;;11.48;3.03;;;17.30;69.40;;;;;;5029605;28;20484;-84
2023/07/16 05:36:25;;;;;;;9.07;2.90;;;17.40;69.40;;;;;;5032717;28;20598;-83
2023/07/16 05:38:52;;;;;;;7.22;2.58;;;17.40;69.30;;;;;;5021990;28;20050;-83
2023/07/16 05:41:19;;;;;;;10.75;3.30;;;17.40;69.30;;;;;;5016842;28;20062;-80
2023/07/16 05:43:46;;;;;;;8.50;2.75;;;17.40;69.40;;;;;;5011899;28;20049;-83
2023/07/16 05:46:13;;;;;;;9.00;2.88;;;17.50;69.30;;;;;;5027831;28;20192;-80
2023/07/16 05:48:41;;;;;;;11.93;2.83;;;17.50;69.20;;;;;;5029507;28;20480;-81
2023/07/16 05:51:08;;;;;;;8.05;2.95;;;17.50;69.00;;;;;;5025531;28;20140;-81
2023/07/16 05:53:35;;;;;;;9.55;2.92;;;17.50;69.00;;;;;;5028261;28;20084;-82
2023/07/16 05:56:03;;;;;;;7.95;3.22;;;17.50;68.90;;;;;;5026643;28;20058;-85
2023/07/16 05:58:30;;;;;;;9.65;3.13;;;17.50;68.70;;;;;;5023457;28;20054;-81
2023/07/16 06:00:57;;;;;;;9.70;2.87;;;17.60;68.50;;;;;;5017262;28;20535;-82
2023/07/16 06:03:24;;;;;;;7.40;2.70;;;17.60;68.20;;;;;;5045554;28;20969;-82
2023/07/16 06:05:53;;;;;;;7.38;2.70;;;17.70;68.20;;;;;;5027468;28;20096;-82
2023/07/16 06:08:20;;;;;;;10.85;3.65;;;17.80;68.00;;;;;;5027305;28;20052;-84
2023/07/16 06:10:48;;;;;;;8.15;3.22;;;17.80;68.20;;;;;;5036362;28;20066;-84
2023/07/16 06:13:16;;;;;;;10.37;3.33;;;17.80;68.10;;;;;;5043479;28;20046;-83
2023/07/16 06:15:43;;;;;;;11.07;3.28;;;17.80;67.80;;;;;;5022603;28;20058;-82
2023/07/16 06:18:10;;;;;;;8.35;3.20;;;17.80;67.60;;;;;;5027037;28;20144;-82
2023/07/16 06:20:37;;;;;;;7.25;3.38;;;17.90;67.40;;;;;;5021950;28;20542;-82
2023/07/16 06:23:06;;;;;;;10.15;3.50;;;17.90;67.30;;;;;;5026747;28;20157;-80
2023/07/16 06:25:33;;;;;;;8.97;3.27;;;18.00;67.10;;;;;;5012200;28;20108;-82
2023/07/16 06:28:00;;;;;;;8.50;3.10;;;18.00;66.60;;;;;;5024424;28;20062;-83
2023/07/16 06:30:42;;;;;;;9.75;3.75;;;18.00;66.00;;;;;;5026543;28;20046;-83
2023/07/16 06:33:09;;;;;;;10.73;3.63;;;18.10;65.60;;;;;;5033600;28;20169;-83
2023/07/16 06:35:36;;;;;;;12.40;3.70;;;18.10;65.60;;;;;;5008696;28;20486;-85
2023/07/16 06:38:04;;;;;;;9.43;3.93;;;18.10;65.60;;;;;;5026147;28;20052;-85
2023/07/16 06:40:32;;;;;;;8.95;3.05;;;18.10;65.70;;;;;;5035830;28;20056;-84
2023/07/16 06:42:59;;;;;;;9.32;3.03;;;18.10;65.90;;;;;;5028040;28;20193;-81
2023/07/16 06:45:27;;;;;;;8.30;3.42;;;18.10;66.00;;;;;;5025991;28;20054;-82
2023/07/16 06:47:54;;;;;;;10.77;3.83;;;18.10;65.90;;;;;;5007224;28;20166;-82
2023/07/16 06:50:21;;;;;;;11.67;3.83;;;18.20;65.40;;;;;;5023191;28;20546;-86
2023/07/16 06:52:48;;;;;;;10.77;3.60;;;18.20;65.10;;;;;;5002826;28;20136;-83
2023/07/16 06:55:15;;;;;;;10.38;3.90;;;18.20;65.20;;;;;;5022153;28;20050;-83
2023/07/16 06:57:43;;;;;;;9.35;3.35;;;18.20;65.30;;;;;;5026165;28;20575;-84
2023/07/16 07:00:11;;;;;;;7.65;3.30;;;18.20;65.60;;;;;;5026925;28;20056;-86
2023/07/16 07:02:38;;;;;;;9.57;3.43;;;18.30;65.30;;;;;;5023057;28;20049;-84
2023/07/16 07:05:06;;;;;;;9.73;3.53;;;18.30;65.50;;;;;;5021739;28;20053;-81
2023/07/16 07:08:24;;;;;;;10.75;3.63;;;18.30;64.80;;;;;;5028690;28;20140;-83
2023/07/16 07:10:51;;;;;;;8.95;3.88;;;18.40;64.40;;;;;;5023798;28;20180;-82
2023/07/16 07:13:19;;;;;;;10.52;3.72;;;18.40;64.60;;;;;;5014829;28;20050;-81
2023/07/16 07:15:46;;;;;;;10.53;3.70;;;18.40;64.60;;;;;;5012831;28;20141;-82
2023/07/16 07:18:13;;;;;;;6.65;2.95;;;18.50;64.00;;;;;;5015947;28;20061;-82
2023/07/16 07:20:41;;;;;;;10.95;4.00;;;18.50;64.00;;;;;;5019419;28;20050;-84
2023/07/16 07:23:08;;;;;;;8.02;3.40;;;18.50;63.30;;;;;;5015850;28;20058;-84
2023/07/16 07:25:35;;;;;;;9.57;3.78;;;18.60;63.50;;;;;;5025442;28;20056;-82
2023/07/16 07:28:04;;;;;;;8.23;3.50;;;18.50;63.90;;;;;;5024183;28;20054;-83
2023/07/16 07:30:32;;;;;;;9.88;3.47;;;18.60;64.10;;;;;;5022318;28;20638;-85
2023/07/16 07:32:59;;;;;;;8.38;3.53;;;18.60;63.70;;;;;;5016002;28;20053;-84
2023/07/16 07:35:27;;;;;;;11.60;3.80;;;18.70;63.60;;;;;;4999597;28;20070;-84
2023/07/16 07:37:54;;;;;;;9.40;3.80;;;18.70;62.60;;;;;;5013811;28;20066;-83
2023/07/16 07:40:21;;;;;;;9.67;3.57;;;18.80;62.30;;;;;;5017721;28;20057;-84
2023/07/16 07:42:48;;;;;;;9.30;4.28;;;18.70;63.20;;;;;;5027006;28;20223;-84
2023/07/16 07:45:16;;;;;;;9.88;3.60;;;18.80;62.90;;;;;;5024124;28;20054;-83
2023/07/16 07:47:44;;;;;;;9.15;3.28;;;18.80;63.20;;;;;;5030477;28;20081;-84
2023/07/16 07:50:11;;;;;;;9.30;3.75;;;18.80;63.20;;;;;;5030132;28;20050;-84
2023/07/16 07:52:40;;;;;;;10.87;3.47;;;18.80;63.10;;;;;;5019532;28;20917;-85
2023/07/16 07:55:08;;;;;;;9.90;3.58;;;18.90;62.50;;;;;;5010478;28;20070;-83
2023/07/16 07:57:35;;;;;;;11.40;4.07;;;18.90;62.70;;;;;;5017893;28;20054;-83
2023/07/16 08:00:03;;;;;;;9.45;3.50;;;19.00;62.70;;;;;;5017962;28;20077;-83
2023/07/16 08:02:39;;;;;;;9.27;3.97;;;19.10;62.00;;;;;;5017542;28;20563;-81
2023/07/16 08:05:09;;;;;;;8.87;3.63;;;19.10;61.60;;;;;;5022996;28;20083;-83
2023/07/16 08:07:36;;;;;;;9.45;3.13;;;19.10;61.70;;;;;;5007210;28;21028;-84
2023/07/16 08:10:05;;;;;;;12.32;3.80;;;19.10;62.10;;;;;;5011931;28;20044;-86
2023/07/16 08:12:32;;;;;;;10.68;3.70;;;19.20;62.20;;;;;;5008626;28;20124;-83
2023/07/16 08:14:59;;;;;;;9.25;3.83;;;19.20;62.20;;;;;;5010928;28;20053;-85
2023/07/16 08:17:27;;;;;;;10.80;3.63;;;19.30;61.90;;;;;;5028049;28;20674;-84
2023/07/16 08:19:54;;;;;;;7.47;2.60;;;19.30;61.60;;;;;;5024536;28;20050;-87
2023/07/16 08:22:24;;;;;;;11.23;3.70;;;19.30;61.70;;;;;;5025176;28;20613;-84
2023/07/16 08:24:52;;;;;;;7.00;2.72;;;19.30;62.00;;;;;;5029492;28;20069;-85
2023/07/16 08:27:19;;;;;;;10.00;3.80;;;19.30;61.90;;;;;;4999929;28;20046;-85
2023/07/16 08:29:46;;;;;;;7.73;3.10;;;19.30;62.00;;;;;;5009517;28;20042;-83
2023/07/16 08:32:13;;;;;;;10.52;3.15;;;19.30;61.80;;;;;;5009211;28;20117;-84
2023/07/16 08:34:40;;;;;;;11.32;4.10;;;19.30;62.30;;;;;;5001721;28;20052;-86
2023/07/16 08:37:07;;;;;;;11.85;4.18;;;19.30;62.40;;;;;;5018670;28;20128;-85
2023/07/16 08:39:36;;;;;;;7.45;3.05;;;19.30;61.80;;;;;;5038988;28;20058;-83
2023/07/16 08:42:03;;;;;;;9.00;3.50;;;19.30;62.00;;;;;;5039440;28;20053;-84
2023/07/16 08:44:31;;;;;;;9.15;3.35;;;19.30;62.10;;;;;;5020451;28;20084;-86
2023/07/16 08:46:58;;;;;;;11.88;4.20;;;19.30;62.60;;;;;;5032277;28;20495;-85
2023/07/16 08:49:29;;;;;;;8.90;3.60;;;19.30;62.30;;;;;;5033895;28;20062;-85
2023/07/16 08:51:57;;;;;;;8.70;3.67;;;19.40;62.50;;;;;;5027729;28;20058;-84
2023/07/16 08:54:25;;;;;;;12.23;3.93;;;19.40;62.20;;;;;;5041671;28;20081;-83
2023/07/16 08:56:54;;;;;;;8.73;3.72;;;19.40;63.30;;;;;;5009194;28;20086;-84
2023/07/16 08:59:22;;;;;;;7.20;3.22;;;19.50;61.90;;;;;;5024118;28;20081;-84
2023/07/16 09:01:49;;;;;;;11.55;3.75;;;19.50;62.20;;;;;;5019566;28;20499;-86
2023/07/16 09:04:16;;;;;;;10.00;3.85;;;19.60;61.30;;;;;;5028462;28;20050;-84
2023/07/16 09:06:43;;;;;;;9.77;3.60;;;19.70;60.90;;;;;;5021686;28;20054;-82
2023/07/16 09:09:20;;;;;;;9.90;4.00;;;19.70;60.50;;;;;;5027543;28;20169;-84
2023/07/16 09:11:48;;;;;;;10.73;3.70;;;19.70;60.20;;;;;;5007100;28;20109;-83
2023/07/16 09:14:18;;;;;;;8.65;2.53;;;19.70;60.00;;;;;;5026942;28;20526;-82
2023/07/16 09:16:49;;;;;;;9.75;3.50;;;19.70;60.20;;;;;;5022845;28;20512;-84
2023/07/16 09:19:18;;;;;;;12.30;3.63;;;19.70;60.90;;;;;;5015131;28;20043;-85
2023/07/16 09:21:48;;;;;;;9.23;3.78;;;19.70;61.00;;;;;;5021434;28;20057;-86
2023/07/16 09:24:15;;;;;;;8.45;3.80;;;19.70;60.80;;;;;;5023667;28;20128;-85
2023/07/16 09:26:49;;;;;;;11.68;3.90;;;19.80;60.70;;;;;;5028793;28;20061;-86
2023/07/16 09:29:18;;;;;;;7.22;2.95;;;19.70;60.70;;;;;;5009683;28;20050;-84
2023/07/16 09:31:57;;;;;;;7.37;2.50;;;19.80;60.40;;;;;;5010723;28;20058;-83
2023/07/16 09:34:24;;;;;;;8.10;3.15;;;19.80;60.70;;;;;;5027749;28;20058;-81
2023/07/16 09:36:51;;;;;;;12.13;4.03;;;19.70;61.20;;;;;;5026015;28;20205;-80
2023/07/16 09:39:20;;;;;;;10.55;3.72;;;19.80;60.50;;;;;;5027344;28;20352;-80
2023/07/16 09:41:48;;;;;;;6.93;3.00;;;19.70;61.30;;;;;;5027642;28;20054;-81
2023/07/16 09:44:16;;;;;;;8.50;3.60;;;19.80;61.40;;;;;;5029900;28;20133;-83
2023/07/16 09:46:45;;;;;;;6.70;3.28;;;19.80;61.20;;;;;;5020553;28;20081;-80
2023/07/16 09:49:15;;;;;;;7.78;3.45;;;19.90;59.70;;;;;;5020466;28;20056;-81
2023/07/16 09:51:44;;;;;;;10.70;4.07;;;19.90;60.30;;;;;;5041251;28;20056;-80
2023/07/16 09:54:13;;;;;;;9.55;3.40;;;19.90;59.90;;;;;;5028276;28;20137;-82
2023/07/16 09:56:45;;;;;;;10.67;3.57;;;19.90;59.60;;;;;;5026180;28;20209;-84
2023/07/16 09:59:15;;;;;;;8.90;3.70;;;19.90;60.10;;;;;;5027487;28;20085;-79
2023/07/16 10:01:43;;;;;;;11.45;4.00;;;20.00;58.20;;;;;;5043039;28;20054;-85
2023/07/16 10:04:14;;;;;;;9.15;3.30;;;20.00;58.30;;;;;;5016400;28;20054;-80
2023/07/16 10:06:52;;;;;;;10.20;4.20;;;20.00;59.10;;;;;;5023129;28;20050;-83
2023/07/16 10:09:40;;;;;;;10.87;3.90;;;20.00;59.10;;;;;;5026212;28;20139;-84
2023/07/16 10:12:15;;;;;;;8.90;3.20;;;20.00;58.80;;;;;;5006160;28;21083;-79
2023/07/16 10:14:45;;;;;;;11.02;3.70;;;20.00;59.70;;;;;;5015538;28;20050;-77
2023/07/16 10:17:18;;;;;;;7.60;3.08;;;20.00;59.90;;;;;;5027518;28;20141;-76
2023/07/16 10:19:49;;;;;;;6.78;3.15;;;20.00;59.30;;;;;;5011113;28;20042;-79
2023/07/16 10:22:16;;;;;;;10.47;4.07;;;20.00;59.50;;;;;;5044270;28;20053;-79
2023/07/16 10:24:43;;;;;;;8.43;3.08;;;20.00;59.80;;;;;;5036666;28;20049;-81
2023/07/16 10:27:13;;;;;;;9.00;3.35;;;20.00;60.10;;;;;;5033721;28;20056;-79
2023/07/16 10:29:40;;;;;;;8.43;4.05;;;20.00;60.80;;;;;;5027378;28;20301;-81
2023/07/16 10:32:08;;;;;;;9.75;3.97;;;20.00;60.80;;;;;;5027268;28;20049;-83
2023/07/16 10:34:37;;;;;;;10.83;4.33;;;20.00;60.00;;;;;;5027575;28;20042;-81
2023/07/16 10:37:06;;;;;;;9.65;3.95;;;20.00;60.70;;;;;;5018609;28;20060;-79
2023/07/16 10:39:33;;;;;;;8.85;4.10;;;20.00;61.10;;;;;;5027238;28;20052;-79
2023/07/16 10:42:02;;;;;;;9.30;3.92;;;20.00;61.30;;;;;;5024118;28;20053;-81
2023/07/16 10:44:30;;;;;;;8.88;3.83;;;20.00;61.20;;;;;;5029252;28;20056;-82
2023/07/16 10:46:57;;;;;;;8.60;3.67;;;20.10;60.70;;;;;;5027400;28;20050;-83
2023/07/16 10:49:30;;;;;;;10.13;3.92;;;20.10;59.70;;;;;;5031334;28;20049;-82
2023/07/16 10:52:02;;;;;;;11.93;3.97;;;20.20;59.30;;;;;;5020337;28;20058;-81
2023/07/16 10:54:29;;;;;;;7.90;2.83;;;20.10;59.70;;;;;;5038961;28;20053;-80
2023/07/16 10:56:56;;;;;;;7.97;3.47;;;20.10;60.10;;;;;;5007517;28;20077;-79
2023/07/16 10:59:23;;;;;;;9.93;3.53;;;20.20;59.50;;;;;;5025413;28;20069;-78
2023/07/16 11:01:51;;;;;;;9.15;3.53;;;20.20;59.60;;;;;;5026203;28;20054;-80
2023/07/16 11:04:18;;;;;;;8.32;3.47;;;20.20;59.50;;;;;;5016087;28;20046;-79
2023/07/16 11:06:45;;;;;;;5.90;2.95;;;20.20;59.90;;;;;;5019161;28;20050;-80
2023/07/16 11:09:14;;;;;;;9.43;3.60;;;20.20;59.70;;;;;;5007207;28;20059;-79
2023/07/16 11:11:41;;;;;;;10.20;3.23;;;20.20;60.70;;;;;;5020587;28;20062;-79
2023/07/16 11:14:09;;;;;;;8.13;3.00;;;20.30;60.40;;;;;;5026446;28;20054;-80
2023/07/16 11:16:37;;;;;;;7.85;3.17;;;20.30;60.90;;;;;;5025122;28;20058;-80
2023/07/16 11:19:06;;;;;;;7.95;3.30;;;20.30;59.50;;;;;;5027965;28;20135;-76
2023/07/16 11:21:35;;;;;;;7.85;2.50;;;20.30;59.50;;;;;;5027408;28;20046;-82
2023/07/16 11:24:09;;;;;;;7.90;3.13;;;20.30;59.00;;;;;;5012234;28;20046;-80
2023/07/16 11:26:38;;;;;;;9.48;3.72;;;20.30;58.40;;;;;;5025627;28;21772;-81
2023/07/16 11:29:14;;;;;;;8.90;3.83;;;20.30;58.70;;;;;;5021333;28;20145;-82
2023/07/16 11:31:41;;;;;;;8.02;3.83;;;20.30;59.10;;;;;;5021087;28;20706;-83
2023/07/16 11:34:08;;;;;;;8.65;4.05;;;20.30;59.60;;;;;;5023036;28;20053;-82
2023/07/16 11:36:35;;;;;;;8.97;3.90;;;20.30;60.00;;;;;;5022087;28;20050;-81
2023/07/16 11:39:04;;;;;;;8.25;3.70;;;20.30;60.00;;;;;;5008378;28;20576;-82
2023/07/16 11:41:32;;;;;;;8.45;3.92;;;20.30;60.50;;;;;;5025288;28;20061;-82
2023/07/16 11:44:02;;;;;;;8.13;3.58;;;20.30;60.60;;;;;;5009070;28;20700;-83
2023/07/16 11:46:33;;;;;;;9.93;2.90;;;20.30;60.30;;;;;;5011187;28;20053;-83
2023/07/16 11:49:00;;;;;;;9.33;3.90;;;20.30;60.20;;;;;;5024307;28;20163;-83
2023/07/16 11:51:27;;;;;;;9.32;3.58;;;20.30;59.80;;;;;;5016989;28;20042;-83
2023/07/16 11:53:56;;;;;;;11.10;3.80;;;20.30;60.00;;;;;;5023183;28;20054;-81
2023/07/16 11:56:24;;;;;;;9.23;3.92;;;20.30;60.50;;;;;;5044977;28;20060;-81
2023/07/16 11:58:51;;;;;;;6.97;3.50;;;20.30;60.30;;;;;;5032461;28;20070;-80
2023/07/16 12:01:19;;;;;;;8.03;3.60;;;20.30;60.30;;;;;;5029233;28;20523;-80
2023/07/16 12:03:47;;;;;;;8.30;3.85;;;20.30;60.30;;;;;;5026926;28;20125;-82
2023/07/16 12:06:14;;;;;;;11.23;3.85;;;20.30;60.70;;;;;;5029558;28;20050;-82
2023/07/16 12:08:41;;;;;;;8.32;3.70;;;20.40;61.00;;;;;;5027922;28;20590;-82
2023/07/16 12:11:08;;;;;;;7.55;3.78;;;20.50;59.80;;;;;;5029223;28;20062;-81
2023/07/16 12:13:35;;;;;;;9.23;3.57;;;20.50;60.10;;;;;;5029879;28;20064;-82
2023/07/16 12:16:02;;;;;;;7.45;3.45;;;20.50;59.90;;;;;;5028540;28;20057;-81
2023/07/16 12:18:31;;;;;;;8.10;3.45;;;20.50;59.80;;;;;;5029455;28;20061;-81
2023/07/16 12:20:58;;;;;;;7.32;3.50;;;20.50;59.80;;;;;;5046088;28;20109;-81
2023/07/16 12:23:25;;;;;;;8.93;4.10;;;20.50;59.90;;;;;;5028397;28;20065;-80
2023/07/16 12:25:52;;;;;;;9.97;4.00;;;20.50;60.20;;;;;;5037452;28;20074;-81
2023/07/16 12:28:19;;;;;;;10.93;4.10;;;20.50;60.60;;;;;;5019364;28;20054;-81
2023/07/16 12:30:46;;;;;;;8.70;3.90;;;20.50;60.00;;;;;;5029065;28;20048;-81
2023/07/16 12:33:13;;;;;;;11.15;3.75;;;20.50;59.70;;;;;;5030122;28;20049;-80
2023/07/16 12:35:43;;;;;;;10.77;4.18;;;20.50;60.20;;;;;;5045699;28;20042;-81
2023/07/16 12:38:10;;;;;;;9.07;4.07;;;20.50;61.10;;;;;;5029325;28;20112;-81
2023/07/16 12:40:40;;;;;;;9.77;3.92;;;20.50;61.60;;;;;;5012847;28;20520;-80
2023/07/16 12:43:07;;;;;;;9.27;3.80;;;20.40;62.00;;;;;;5024056;28;20141;-80
2023/07/16 12:45:34;;;;;;;7.55;3.80;;;20.30;62.40;;;;;;5027765;28;20915;-83
2023/07/16 12:48:01;;;;;;;8.63;3.90;;;20.30;61.50;;;;;;4993037;28;20412;-82